sensor_id;sensor_type;location;lat;lon;timestamp;P1;durP1;ratioP1;P2;durP2;ratioP2
77888;SDS011;67082;41.704;44.768;2023-02-15T00:00:08;5.50;;;2.10;;
77888;SDS011;67082;41.704;44.768;2023-02-15T00:02:58;3.83;;;1.75;;
77888;SDS011;67082;41.704;44.768;2023-02-15T00:05:27;2.53;;;1.40;;
77888;SDS011;67082;41.704;44.768;2023-02-15T00:07:56;4.07;;;1.92;;
77888;SDS011;67082;41.704;44.768;2023-02-15T00:10:24;3.58;;;1.70;;
77888;SDS011;67082;41.704;44.768;2023-02-15T00:12:52;4.28;;;1.92;;
77888;SDS011;67082;41.704;44.768;2023-02-15T00:15:21;3.55;;;1.77;;
77888;SDS011;67082;41.704;44.768;2023-02-15T00:17:48;3.85;;;1.75;;
77888;SDS011;67082;41.704;44.768;2023-02-15T00:20:17;3.88;;;1.70;;
77888;SDS011;67082;41.704;44.768;2023-02-15T00:22:46;3.80;;;1.80;;
77888;SDS011;67082;41.704;44.768;2023-02-15T00:25:14;4.63;;;2.17;;
77888;SDS011;67082;41.704;44.768;2023-02-15T00:27:42;8.68;;;3.05;;
77888;SDS011;67082;41.704;44.768;2023-02-15T00:30:10;11.02;;;3.75;;
77888;SDS011;67082;41.704;44.768;2023-02-15T00:32:39;8.55;;;3.50;;
77888;SDS011;67082;41.704;44.768;2023-02-15T00:35:07;6.40;;;3.38;;
77888;SDS011;67082;41.704;44.768;2023-02-15T00:37:36;7.57;;;3.83;;
77888;SDS011;67082;41.704;44.768;2023-02-15T00:40:05;7.63;;;3.75;;
77888;SDS011;67082;41.704;44.768;2023-02-15T00:42:33;6.50;;;3.58;;
77888;SDS011;67082;41.704;44.768;2023-02-15T00:45:02;9.18;;;3.83;;
77888;SDS011;67082;41.704;44.768;2023-02-15T00:47:30;8.85;;;3.85;;
77888;SDS011;67082;41.704;44.768;2023-02-15T00:49:58;7.95;;;3.55;;
77888;SDS011;67082;41.704;44.768;2023-02-15T00:52:26;8.32;;;3.75;;
77888;SDS011;67082;41.704;44.768;2023-02-15T00:54:55;7.43;;;3.92;;
77888;SDS011;67082;41.704;44.768;2023-02-15T00:57:23;7.05;;;4.20;;
77888;SDS011;67082;41.704;44.768;2023-02-15T00:59:52;8.27;;;4.15;;
77888;SDS011;67082;41.704;44.768;2023-02-15T01:02:20;11.50;;;4.60;;
77888;SDS011;67082;41.704;44.768;2023-02-15T01:04:48;10.18;;;4.22;;
77888;SDS011;67082;41.704;44.768;2023-02-15T01:07:16;7.00;;;4.15;;
77888;SDS011;67082;41.704;44.768;2023-02-15T01:09:44;8.00;;;4.00;;
77888;SDS011;67082;41.704;44.768;2023-02-15T01:12:12;9.25;;;4.20;;
77888;SDS011;67082;41.704;44.768;2023-02-15T01:14:41;7.40;;;3.95;;
77888;SDS011;67082;41.704;44.768;2023-02-15T01:17:09;7.55;;;4.20;;
77888;SDS011;67082;41.704;44.768;2023-02-15T01:19:37;8.27;;;4.13;;
77888;SDS011;67082;41.704;44.768;2023-02-15T01:22:06;7.75;;;4.20;;
77888;SDS011;67082;41.704;44.768;2023-02-15T01:24:35;9.82;;;4.10;;
77888;SDS011;67082;41.704;44.768;2023-02-15T01:27:03;7.20;;;4.13;;
77888;SDS011;67082;41.704;44.768;2023-02-15T01:29:31;6.25;;;3.65;;
77888;SDS011;67082;41.704;44.768;2023-02-15T01:31:59;6.90;;;3.72;;
77888;SDS011;67082;41.704;44.768;2023-02-15T01:34:28;7.45;;;4.40;;
77888;SDS011;67082;41.704;44.768;2023-02-15T01:36:57;8.75;;;3.92;;
77888;SDS011;67082;41.704;44.768;2023-02-15T01:39:25;7.07;;;3.72;;
77888;SDS011;67082;41.704;44.768;2023-02-15T01:41:53;6.40;;;3.72;;
77888;SDS011;67082;41.704;44.768;2023-02-15T01:52:40;7.75;;;3.90;;
77888;SDS011;67082;41.704;44.768;2023-02-15T01:55:16;8.63;;;3.30;;
77888;SDS011;67082;41.704;44.768;2023-02-15T01:57:45;8.65;;;3.42;;
77888;SDS011;67082;41.704;44.768;2023-02-15T02:00:14;7.63;;;3.42;;
77888;SDS011;67082;41.704;44.768;2023-02-15T02:02:47;9.88;;;3.65;;
77888;SDS011;67082;41.704;44.768;2023-02-15T02:05:24;8.88;;;3.90;;
77888;SDS011;67082;41.704;44.768;2023-02-15T02:07:55;6.18;;;3.60;;
77888;SDS011;67082;41.704;44.768;2023-02-15T02:10:26;6.20;;;3.22;;
77888;SDS011;67082;41.704;44.768;2023-02-15T02:12:59;7.40;;;3.90;;
77888;SDS011;67082;41.704;44.768;2023-02-15T02:15:51;8.07;;;3.40;;
77888;SDS011;67082;41.704;44.768;2023-02-15T02:21:38;6.43;;;3.42;;
77888;SDS011;67082;41.704;44.768;2023-02-15T02:27:27;8.52;;;3.70;;
77888;SDS011;67082;41.704;44.768;2023-02-15T02:33:12;7.15;;;3.58;;
77888;SDS011;67082;41.704;44.768;2023-02-15T02:46:53;7.40;;;3.55;;
77888;SDS011;67082;41.704;44.768;2023-02-15T02:49:33;5.95;;;3.28;;
77888;SDS011;67082;41.704;44.768;2023-02-15T02:52:05;6.45;;;3.40;;
77888;SDS011;67082;41.704;44.768;2023-02-15T02:54:54;6.78;;;3.58;;
77888;SDS011;67082;41.704;44.768;2023-02-15T02:57:25;7.30;;;3.90;;
77888;SDS011;67082;41.704;44.768;2023-02-15T02:59:56;7.35;;;3.70;;
77888;SDS011;67082;41.704;44.768;2023-02-15T03:02:29;7.82;;;3.78;;
77888;SDS011;67082;41.704;44.768;2023-02-15T03:05:06;9.40;;;3.90;;
77888;SDS011;67082;41.704;44.768;2023-02-15T03:07:39;6.28;;;3.33;;
77888;SDS011;67082;41.704;44.768;2023-02-15T03:10:10;8.00;;;3.70;;
77888;SDS011;67082;41.704;44.768;2023-02-15T03:12:39;10.23;;;3.50;;
77888;SDS011;67082;41.704;44.768;2023-02-15T03:15:16;7.93;;;3.20;;
77888;SDS011;67082;41.704;44.768;2023-02-15T03:17:51;10.38;;;3.58;;
77888;SDS011;67082;41.704;44.768;2023-02-15T03:20:31;8.27;;;3.33;;
77888;SDS011;67082;41.704;44.768;2023-02-15T03:23:06;7.45;;;3.40;;
77888;SDS011;67082;41.704;44.768;2023-02-15T03:25:41;8.40;;;3.53;;
77888;SDS011;67082;41.704;44.768;2023-02-15T03:31:08;6.28;;;3.10;;
77888;SDS011;67082;41.704;44.768;2023-02-15T03:33:41;6.78;;;3.53;;
77888;SDS011;67082;41.704;44.768;2023-02-15T03:36:20;7.30;;;3.42;;
77888;SDS011;67082;41.704;44.768;2023-02-15T03:39:13;8.45;;;3.58;;
77888;SDS011;67082;41.704;44.768;2023-02-15T03:45:01;7.72;;;3.30;;
77888;SDS011;67082;41.704;44.768;2023-02-15T03:47:34;8.23;;;3.80;;
77888;SDS011;67082;41.704;44.768;2023-02-15T03:50:09;6.07;;;3.40;;
77888;SDS011;67082;41.704;44.768;2023-02-15T03:53:00;9.65;;;3.38;;
77888;SDS011;67082;41.704;44.768;2023-02-15T03:55:33;9.00;;;4.03;;
77888;SDS011;67082;41.704;44.768;2023-02-15T03:58:02;12.73;;;4.13;;
77888;SDS011;67082;41.704;44.768;2023-02-15T04:00:59;8.68;;;4.72;;
77888;SDS011;67082;41.704;44.768;2023-02-15T04:06:25;8.57;;;3.67;;
77888;SDS011;67082;41.704;44.768;2023-02-15T04:08:53;7.70;;;3.92;;
77888;SDS011;67082;41.704;44.768;2023-02-15T04:11:39;11.13;;;3.92;;
77888;SDS011;67082;41.704;44.768;2023-02-15T04:14:08;6.80;;;3.50;;
77888;SDS011;67082;41.704;44.768;2023-02-15T04:16:54;13.00;;;4.10;;
77888;SDS011;67082;41.704;44.768;2023-02-15T04:19:23;11.07;;;4.45;;
77888;SDS011;67082;41.704;44.768;2023-02-15T04:22:09;9.50;;;4.20;;
77888;SDS011;67082;41.704;44.768;2023-02-15T04:24:56;8.13;;;4.00;;
77888;SDS011;67082;41.704;44.768;2023-02-15T04:27:43;6.17;;;3.53;;
77888;SDS011;67082;41.704;44.768;2023-02-15T04:30:20;8.45;;;4.22;;
77888;SDS011;67082;41.704;44.768;2023-02-15T04:32:50;7.93;;;3.45;;
77888;SDS011;67082;41.704;44.768;2023-02-15T04:35:18;6.50;;;3.30;;
77888;SDS011;67082;41.704;44.768;2023-02-15T04:37:46;6.03;;;3.20;;
77888;SDS011;67082;41.704;44.768;2023-02-15T04:40:14;5.70;;;2.83;;
77888;SDS011;67082;41.704;44.768;2023-02-15T04:42:48;7.03;;;3.20;;
77888;SDS011;67082;41.704;44.768;2023-02-15T04:45:17;6.80;;;3.25;;
77888;SDS011;67082;41.704;44.768;2023-02-15T04:47:45;7.88;;;3.33;;
77888;SDS011;67082;41.704;44.768;2023-02-15T04:50:13;9.05;;;3.60;;
77888;SDS011;67082;41.704;44.768;2023-02-15T04:52:42;7.15;;;3.30;;
77888;SDS011;67082;41.704;44.768;2023-02-15T04:55:10;6.07;;;3.30;;
77888;SDS011;67082;41.704;44.768;2023-02-15T04:57:38;8.80;;;3.58;;
77888;SDS011;67082;41.704;44.768;2023-02-15T05:00:06;7.43;;;3.97;;
77888;SDS011;67082;41.704;44.768;2023-02-15T05:02:37;15.70;;;4.72;;
77888;SDS011;67082;41.704;44.768;2023-02-15T05:05:05;10.40;;;4.13;;
77888;SDS011;67082;41.704;44.768;2023-02-15T05:07:34;10.85;;;4.55;;
77888;SDS011;67082;41.704;44.768;2023-02-15T05:10:02;13.55;;;4.70;;
77888;SDS011;67082;41.704;44.768;2023-02-15T05:12:31;11.65;;;4.78;;
77888;SDS011;67082;41.704;44.768;2023-02-15T05:14:59;13.38;;;5.05;;
77888;SDS011;67082;41.704;44.768;2023-02-15T05:17:28;10.40;;;4.88;;
77888;SDS011;67082;41.704;44.768;2023-02-15T05:19:56;21.67;;;5.30;;
77888;SDS011;67082;41.704;44.768;2023-02-15T05:22:24;9.30;;;4.72;;
77888;SDS011;67082;41.704;44.768;2023-02-15T05:24:52;15.57;;;5.07;;
77888;SDS011;67082;41.704;44.768;2023-02-15T05:27:39;10.57;;;4.80;;
77888;SDS011;67082;41.704;44.768;2023-02-15T05:30:25;12.25;;;4.72;;
77888;SDS011;67082;41.704;44.768;2023-02-15T05:32:54;17.50;;;4.97;;
77888;SDS011;67082;41.704;44.768;2023-02-15T05:35:22;12.88;;;4.40;;
77888;SDS011;67082;41.704;44.768;2023-02-15T05:37:50;10.77;;;4.47;;
77888;SDS011;67082;41.704;44.768;2023-02-15T05:40:19;9.20;;;4.68;;
77888;SDS011;67082;41.704;44.768;2023-02-15T05:42:46;10.13;;;4.18;;
77888;SDS011;67082;41.704;44.768;2023-02-15T05:45:15;6.78;;;3.97;;
77888;SDS011;67082;41.704;44.768;2023-02-15T05:47:43;10.77;;;4.20;;
77888;SDS011;67082;41.704;44.768;2023-02-15T05:50:11;10.77;;;4.25;;
77888;SDS011;67082;41.704;44.768;2023-02-15T05:52:39;10.80;;;4.38;;
77888;SDS011;67082;41.704;44.768;2023-02-15T05:55:08;9.38;;;4.10;;
77888;SDS011;67082;41.704;44.768;2023-02-15T05:57:36;8.20;;;3.95;;
77888;SDS011;67082;41.704;44.768;2023-02-15T06:00:05;13.90;;;4.35;;
77888;SDS011;67082;41.704;44.768;2023-02-15T06:02:39;11.27;;;4.32;;
77888;SDS011;67082;41.704;44.768;2023-02-15T06:05:08;9.95;;;4.70;;
77888;SDS011;67082;41.704;44.768;2023-02-15T06:07:36;10.48;;;4.30;;
77888;SDS011;67082;41.704;44.768;2023-02-15T06:10:05;9.52;;;4.40;;
77888;SDS011;67082;41.704;44.768;2023-02-15T06:12:33;9.82;;;4.82;;
77888;SDS011;67082;41.704;44.768;2023-02-15T06:15:02;10.40;;;4.25;;
77888;SDS011;67082;41.704;44.768;2023-02-15T06:17:31;16.13;;;5.07;;
77888;SDS011;67082;41.704;44.768;2023-02-15T06:19:59;12.50;;;5.07;;
77888;SDS011;67082;41.704;44.768;2023-02-15T06:22:28;11.65;;;5.00;;
77888;SDS011;67082;41.704;44.768;2023-02-15T06:24:56;17.58;;;4.80;;
77888;SDS011;67082;41.704;44.768;2023-02-15T06:27:24;10.25;;;4.63;;
77888;SDS011;67082;41.704;44.768;2023-02-15T06:29:53;10.68;;;5.00;;
77888;SDS011;67082;41.704;44.768;2023-02-15T06:32:21;9.13;;;4.55;;
77888;SDS011;67082;41.704;44.768;2023-02-15T06:34:49;13.57;;;5.45;;
77888;SDS011;67082;41.704;44.768;2023-02-15T06:37:17;11.75;;;5.05;;
77888;SDS011;67082;41.704;44.768;2023-02-15T06:39:45;13.23;;;5.25;;
77888;SDS011;67082;41.704;44.768;2023-02-15T06:42:14;11.15;;;5.03;;
77888;SDS011;67082;41.704;44.768;2023-02-15T06:44:45;12.80;;;5.07;;
77888;SDS011;67082;41.704;44.768;2023-02-15T06:47:13;12.30;;;5.65;;
77888;SDS011;67082;41.704;44.768;2023-02-15T06:49:41;10.13;;;5.07;;
77888;SDS011;67082;41.704;44.768;2023-02-15T06:52:09;10.50;;;4.88;;
77888;SDS011;67082;41.704;44.768;2023-02-15T06:54:40;12.18;;;5.63;;
77888;SDS011;67082;41.704;44.768;2023-02-15T06:57:09;14.43;;;5.63;;
77888;SDS011;67082;41.704;44.768;2023-02-15T06:59:37;12.73;;;5.57;;
77888;SDS011;67082;41.704;44.768;2023-02-15T07:02:05;11.05;;;5.20;;
77888;SDS011;67082;41.704;44.768;2023-02-15T07:04:34;12.40;;;5.05;;
77888;SDS011;67082;41.704;44.768;2023-02-15T07:07:02;10.70;;;5.07;;
77888;SDS011;67082;41.704;44.768;2023-02-15T07:09:30;14.93;;;5.72;;
77888;SDS011;67082;41.704;44.768;2023-02-15T07:11:58;10.73;;;5.05;;
77888;SDS011;67082;41.704;44.768;2023-02-15T07:14:45;13.48;;;5.47;;
77888;SDS011;67082;41.704;44.768;2023-02-15T07:17:12;12.30;;;5.15;;
77888;SDS011;67082;41.704;44.768;2023-02-15T07:20:06;15.32;;;5.40;;
77888;SDS011;67082;41.704;44.768;2023-02-15T07:22:37;13.27;;;5.45;;
77888;SDS011;67082;41.704;44.768;2023-02-15T07:25:06;13.68;;;5.07;;
77888;SDS011;67082;41.704;44.768;2023-02-15T07:27:36;15.02;;;5.65;;
77888;SDS011;67082;41.704;44.768;2023-02-15T07:30:06;15.43;;;5.47;;
77888;SDS011;67082;41.704;44.768;2023-02-15T07:32:38;11.90;;;5.75;;
77888;SDS011;67082;41.704;44.768;2023-02-15T07:35:26;12.65;;;5.53;;
77888;SDS011;67082;41.704;44.768;2023-02-15T07:37:54;9.10;;;5.03;;
77888;SDS011;67082;41.704;44.768;2023-02-15T07:40:23;12.98;;;4.90;;
77888;SDS011;67082;41.704;44.768;2023-02-15T07:42:51;13.43;;;5.47;;
77888;SDS011;67082;41.704;44.768;2023-02-15T07:45:22;14.18;;;5.20;;
77888;SDS011;67082;41.704;44.768;2023-02-15T07:47:50;16.08;;;5.75;;
77888;SDS011;67082;41.704;44.768;2023-02-15T07:50:19;15.13;;;5.80;;
77888;SDS011;67082;41.704;44.768;2023-02-15T07:52:47;19.23;;;5.53;;
77888;SDS011;67082;41.704;44.768;2023-02-15T07:55:17;14.93;;;5.47;;
77888;SDS011;67082;41.704;44.768;2023-02-15T07:57:46;10.23;;;5.43;;
77888;SDS011;67082;41.704;44.768;2023-02-15T08:00:16;10.38;;;5.40;;
77888;SDS011;67082;41.704;44.768;2023-02-15T08:02:49;12.40;;;5.28;;
77888;SDS011;67082;41.704;44.768;2023-02-15T08:05:57;14.82;;;7.15;;
77888;SDS011;67082;41.704;44.768;2023-02-15T08:08:27;14.85;;;6.20;;
77888;SDS011;67082;41.704;44.768;2023-02-15T08:13:53;17.88;;;5.75;;
77888;SDS011;67082;41.704;44.768;2023-02-15T08:16:25;15.18;;;6.35;;
77888;SDS011;67082;41.704;44.768;2023-02-15T08:21:48;13.15;;;6.13;;
77888;SDS011;67082;41.704;44.768;2023-02-15T08:24:21;15.43;;;5.90;;
77888;SDS011;67082;41.704;44.768;2023-02-15T08:26:51;14.98;;;5.13;;
77888;SDS011;67082;41.704;44.768;2023-02-15T08:29:21;14.15;;;4.97;;
77888;SDS011;67082;41.704;44.768;2023-02-15T08:32:11;12.35;;;5.25;;
77888;SDS011;67082;41.704;44.768;2023-02-15T08:34:40;12.65;;;5.30;;
77888;SDS011;67082;41.704;44.768;2023-02-15T08:37:09;13.25;;;5.72;;
77888;SDS011;67082;41.704;44.768;2023-02-15T08:39:37;13.13;;;5.72;;
77888;SDS011;67082;41.704;44.768;2023-02-15T08:42:06;12.73;;;5.72;;
77888;SDS011;67082;41.704;44.768;2023-02-15T08:44:33;17.90;;;5.72;;
77888;SDS011;67082;41.704;44.768;2023-02-15T08:47:02;12.05;;;5.68;;
77888;SDS011;67082;41.704;44.768;2023-02-15T08:49:31;11.35;;;5.68;;
77888;SDS011;67082;41.704;44.768;2023-02-15T08:51:59;10.95;;;4.65;;
77888;SDS011;67082;41.704;44.768;2023-02-15T08:54:27;12.00;;;5.40;;
77888;SDS011;67082;41.704;44.768;2023-02-15T08:56:57;11.70;;;4.88;;
77888;SDS011;67082;41.704;44.768;2023-02-15T08:59:25;12.43;;;4.75;;
77888;SDS011;67082;41.704;44.768;2023-02-15T09:01:54;10.55;;;5.30;;
77888;SDS011;67082;41.704;44.768;2023-02-15T09:04:24;10.70;;;5.20;;
77888;SDS011;67082;41.704;44.768;2023-02-15T09:06:52;11.77;;;4.03;;
77888;SDS011;67082;41.704;44.768;2023-02-15T09:09:20;12.93;;;4.85;;
77888;SDS011;67082;41.704;44.768;2023-02-15T09:11:50;7.75;;;4.15;;
77888;SDS011;67082;41.704;44.768;2023-02-15T09:14:25;10.00;;;4.70;;
77888;SDS011;67082;41.704;44.768;2023-02-15T09:16:54;13.02;;;5.35;;
77888;SDS011;67082;41.704;44.768;2023-02-15T09:19:23;12.77;;;5.18;;
77888;SDS011;67082;41.704;44.768;2023-02-15T09:21:52;10.80;;;4.80;;
77888;SDS011;67082;41.704;44.768;2023-02-15T09:24:20;11.88;;;4.15;;
77888;SDS011;67082;41.704;44.768;2023-02-15T09:26:48;12.15;;;5.25;;
77888;SDS011;67082;41.704;44.768;2023-02-15T09:29:17;14.27;;;5.50;;
77888;SDS011;67082;41.704;44.768;2023-02-15T09:31:46;9.32;;;5.07;;
77888;SDS011;67082;41.704;44.768;2023-02-15T09:34:18;14.65;;;5.95;;
77888;SDS011;67082;41.704;44.768;2023-02-15T09:36:48;13.80;;;5.47;;
77888;SDS011;67082;41.704;44.768;2023-02-15T09:39:18;17.92;;;7.03;;
77888;SDS011;67082;41.704;44.768;2023-02-15T09:51:19;15.32;;;5.68;;
77888;SDS011;67082;41.704;44.768;2023-02-15T09:54:29;16.83;;;6.07;;
77888;SDS011;67082;41.704;44.768;2023-02-15T10:08:45;16.77;;;6.70;;
77888;SDS011;67082;41.704;44.768;2023-02-15T10:17:19;13.60;;;6.30;;
77888;SDS011;67082;41.704;44.768;2023-02-15T10:22:59;14.65;;;6.15;;
77888;SDS011;67082;41.704;44.768;2023-02-15T10:25:41;12.75;;;6.25;;
77888;SDS011;67082;41.704;44.768;2023-02-15T10:28:31;21.85;;;6.82;;
77888;SDS011;67082;41.704;44.768;2023-02-15T10:34:02;18.80;;;7.47;;
77888;SDS011;67082;41.704;44.768;2023-02-15T10:36:48;15.13;;;6.10;;
77888;SDS011;67082;41.704;44.768;2023-02-15T10:42:50;14.30;;;5.57;;
77888;SDS011;67082;41.704;44.768;2023-02-15T10:50:55;13.13;;;4.60;;
77888;SDS011;67082;41.704;44.768;2023-02-15T10:56:28;11.20;;;4.43;;
77888;SDS011;67082;41.704;44.768;2023-02-15T11:07:52;13.63;;;4.65;;
77888;SDS011;67082;41.704;44.768;2023-02-15T11:10:43;9.90;;;4.40;;
77888;SDS011;67082;41.704;44.768;2023-02-15T11:13:17;14.48;;;4.97;;
77888;SDS011;67082;41.704;44.768;2023-02-15T11:15:49;10.98;;;4.35;;
77888;SDS011;67082;41.704;44.768;2023-02-15T11:23:49;14.38;;;5.38;;
77888;SDS011;67082;41.704;44.768;2023-02-15T11:28:56;9.98;;;4.40;;
77888;SDS011;67082;41.704;44.768;2023-02-15T11:31:34;10.50;;;4.78;;
77888;SDS011;67082;41.704;44.768;2023-02-15T11:34:22;12.30;;;4.70;;
77888;SDS011;67082;41.704;44.768;2023-02-15T11:36:58;19.38;;;5.30;;
77888;SDS011;67082;41.704;44.768;2023-02-15T11:39:32;11.43;;;5.30;;
77888;SDS011;67082;41.704;44.768;2023-02-15T11:42:05;13.07;;;5.35;;
77888;SDS011;67082;41.704;44.768;2023-02-15T11:45:04;13.27;;;5.03;;
77888;SDS011;67082;41.704;44.768;2023-02-15T11:47:34;8.63;;;3.40;;
77888;SDS011;67082;41.704;44.768;2023-02-15T11:50:03;6.97;;;3.03;;
77888;SDS011;67082;41.704;44.768;2023-02-15T11:52:32;10.75;;;3.45;;
77888;SDS011;67082;41.704;44.768;2023-02-15T11:55:00;8.38;;;3.30;;
77888;SDS011;67082;41.704;44.768;2023-02-15T11:57:50;6.70;;;3.10;;
77888;SDS011;67082;41.704;44.768;2023-02-15T12:00:31;6.57;;;3.08;;
77888;SDS011;67082;41.704;44.768;2023-02-15T12:08:20;7.55;;;3.05;;
77888;SDS011;67082;41.704;44.768;2023-02-15T12:13:23;11.55;;;3.53;;
77888;SDS011;67082;41.704;44.768;2023-02-15T12:15:53;13.05;;;4.20;;
77888;SDS011;67082;41.704;44.768;2023-02-15T12:21:11;8.68;;;3.10;;
77888;SDS011;67082;41.704;44.768;2023-02-15T12:24:00;8.10;;;3.72;;
77888;SDS011;67082;41.704;44.768;2023-02-15T12:26:33;6.45;;;3.28;;
77888;SDS011;67082;41.704;44.768;2023-02-15T12:29:07;7.90;;;3.05;;
77888;SDS011;67082;41.704;44.768;2023-02-15T12:31:45;7.97;;;3.78;;
77888;SDS011;67082;41.704;44.768;2023-02-15T12:34:25;8.93;;;3.50;;
77888;SDS011;67082;41.704;44.768;2023-02-15T12:36:59;10.23;;;3.20;;
77888;SDS011;67082;41.704;44.768;2023-02-15T12:39:31;6.30;;;2.85;;
77888;SDS011;67082;41.704;44.768;2023-02-15T12:42:24;5.53;;;2.53;;
77888;SDS011;67082;41.704;44.768;2023-02-15T12:44:59;5.88;;;2.25;;
77888;SDS011;67082;41.704;44.768;2023-02-15T12:47:30;8.20;;;2.58;;
77888;SDS011;67082;41.704;44.768;2023-02-15T12:50:06;5.43;;;2.38;;
77888;SDS011;67082;41.704;44.768;2023-02-15T12:52:48;6.05;;;2.13;;
77888;SDS011;67082;41.704;44.768;2023-02-15T12:55:19;3.65;;;1.63;;
77888;SDS011;67082;41.704;44.768;2023-02-15T12:58:36;9.25;;;1.90;;
77888;SDS011;67082;41.704;44.768;2023-02-15T13:00:46;3.90;;;1.58;;
77888;SDS011;67082;41.704;44.768;2023-02-15T13:03:20;5.10;;;1.40;;
77888;SDS011;67082;41.704;44.768;2023-02-15T13:05:51;5.43;;;1.55;;
77888;SDS011;67082;41.704;44.768;2023-02-15T13:08:33;3.72;;;1.60;;
77888;SDS011;67082;41.704;44.768;2023-02-15T13:11:06;4.03;;;1.42;;
77888;SDS011;67082;41.704;44.768;2023-02-15T13:14:00;3.90;;;1.67;;
77888;SDS011;67082;41.704;44.768;2023-02-15T13:19:22;4.32;;;1.50;;
77888;SDS011;67082;41.704;44.768;2023-02-15T13:22:33;4.15;;;1.50;;
77888;SDS011;67082;41.704;44.768;2023-02-15T13:25:11;6.65;;;1.80;;
77888;SDS011;67082;41.704;44.768;2023-02-15T13:27:46;5.25;;;1.60;;
77888;SDS011;67082;41.704;44.768;2023-02-15T13:33:49;5.32;;;1.60;;
77888;SDS011;67082;41.704;44.768;2023-02-15T13:58:59;5.47;;;1.73;;
77888;SDS011;67082;41.704;44.768;2023-02-15T14:06:59;2.83;;;1.30;;
77888;SDS011;67082;41.704;44.768;2023-02-15T14:10:02;3.72;;;1.48;;
77888;SDS011;67082;41.704;44.768;2023-02-15T14:12:53;4.80;;;2.10;;
77888;SDS011;67082;41.704;44.768;2023-02-15T14:15:43;4.95;;;1.40;;
77888;SDS011;67082;41.704;44.768;2023-02-15T14:18:25;2.30;;;1.38;;
77888;SDS011;67082;41.704;44.768;2023-02-15T14:21:08;6.95;;;1.50;;
77888;SDS011;67082;41.704;44.768;2023-02-15T14:26:26;4.35;;;1.85;;
77888;SDS011;67082;41.704;44.768;2023-02-15T14:31:59;4.30;;;1.70;;
77888;SDS011;67082;41.704;44.768;2023-02-15T14:34:36;3.85;;;1.80;;
77888;SDS011;67082;41.704;44.768;2023-02-15T14:37:05;3.75;;;1.60;;
77888;SDS011;67082;41.704;44.768;2023-02-15T14:39:52;4.50;;;1.77;;
77888;SDS011;67082;41.704;44.768;2023-02-15T14:43:15;4.55;;;2.10;;
77888;SDS011;67082;41.704;44.768;2023-02-15T14:46:20;4.45;;;1.80;;
77888;SDS011;67082;41.704;44.768;2023-02-15T14:48:54;4.13;;;1.92;;
77888;SDS011;67082;41.704;44.768;2023-02-15T14:54:09;5.03;;;1.58;;
77888;SDS011;67082;41.704;44.768;2023-02-15T14:56:38;4.43;;;1.83;;
77888;SDS011;67082;41.704;44.768;2023-02-15T14:59:19;6.07;;;2.70;;
77888;SDS011;67082;41.704;44.768;2023-02-15T15:01:51;2.67;;;1.30;;
77888;SDS011;67082;41.704;44.768;2023-02-15T15:04:34;3.30;;;1.50;;
77888;SDS011;67082;41.704;44.768;2023-02-15T15:07:19;3.83;;;1.92;;
77888;SDS011;67082;41.704;44.768;2023-02-15T15:12:44;8.95;;;3.20;;
77888;SDS011;67082;41.704;44.768;2023-02-15T15:15:45;14.48;;;4.53;;
77888;SDS011;67082;41.704;44.768;2023-02-15T15:18:42;3.70;;;1.63;;
77888;SDS011;67082;41.704;44.768;2023-02-15T15:32:48;9.10;;;3.38;;
77888;SDS011;67082;41.704;44.768;2023-02-15T15:41:29;3.45;;;1.40;;
77888;SDS011;67082;41.704;44.768;2023-02-15T15:50:20;3.55;;;1.30;;
77888;SDS011;67082;41.704;44.768;2023-02-15T15:52:53;3.88;;;1.45;;
77888;SDS011;67082;41.704;44.768;2023-02-15T15:55:23;2.10;;;1.00;;
77888;SDS011;67082;41.704;44.768;2023-02-15T15:57:59;3.40;;;1.40;;
77888;SDS011;67082;41.704;44.768;2023-02-15T16:00:34;3.92;;;1.63;;
77888;SDS011;67082;41.704;44.768;2023-02-15T16:03:03;3.03;;;1.40;;
77888;SDS011;67082;41.704;44.768;2023-02-15T16:05:36;2.10;;;0.93;;
77888;SDS011;67082;41.704;44.768;2023-02-15T16:08:06;3.10;;;1.55;;
77888;SDS011;67082;41.704;44.768;2023-02-15T16:10:34;4.10;;;1.70;;
77888;SDS011;67082;41.704;44.768;2023-02-15T16:13:05;4.15;;;1.80;;
77888;SDS011;67082;41.704;44.768;2023-02-15T16:15:36;7.07;;;2.33;;
77888;SDS011;67082;41.704;44.768;2023-02-15T16:18:13;4.53;;;2.05;;
77888;SDS011;67082;41.704;44.768;2023-02-15T16:20:49;3.70;;;1.65;;
77888;SDS011;67082;41.704;44.768;2023-02-15T16:26:09;2.35;;;1.30;;
77888;SDS011;67082;41.704;44.768;2023-02-15T16:28:49;2.00;;;0.85;;
77888;SDS011;67082;41.704;44.768;2023-02-15T16:31:19;2.38;;;1.10;;
77888;SDS011;67082;41.704;44.768;2023-02-15T16:33:52;3.35;;;1.38;;
77888;SDS011;67082;41.704;44.768;2023-02-15T16:36:26;1.70;;;1.08;;
77888;SDS011;67082;41.704;44.768;2023-02-15T16:41:34;3.40;;;1.80;;
77888;SDS011;67082;41.704;44.768;2023-02-15T16:44:05;3.75;;;1.70;;
77888;SDS011;67082;41.704;44.768;2023-02-15T16:46:40;25.48;;;12.40;;
77888;SDS011;67082;41.704;44.768;2023-02-15T16:49:15;3.05;;;1.70;;
77888;SDS011;67082;41.704;44.768;2023-02-15T16:51:44;4.97;;;1.80;;
77888;SDS011;67082;41.704;44.768;2023-02-15T16:54:22;5.07;;;1.90;;
77888;SDS011;67082;41.704;44.768;2023-02-15T16:56:53;3.83;;;2.30;;
77888;SDS011;67082;41.704;44.768;2023-02-15T16:59:30;6.22;;;1.98;;
77888;SDS011;67082;41.704;44.768;2023-02-15T17:01:59;5.47;;;1.83;;
77888;SDS011;67082;41.704;44.768;2023-02-15T17:04:31;4.68;;;2.20;;
77888;SDS011;67082;41.704;44.768;2023-02-15T17:07:20;5.35;;;2.67;;
77888;SDS011;67082;41.704;44.768;2023-02-15T17:09:49;5.75;;;2.05;;
77888;SDS011;67082;41.704;44.768;2023-02-15T17:18:22;5.32;;;2.22;;
77888;SDS011;67082;41.704;44.768;2023-02-15T17:20:53;8.38;;;2.75;;
77888;SDS011;67082;41.704;44.768;2023-02-15T17:23:26;6.20;;;2.55;;
77888;SDS011;67082;41.704;44.768;2023-02-15T17:25:59;8.52;;;3.42;;
77888;SDS011;67082;41.704;44.768;2023-02-15T17:28:40;7.35;;;3.00;;
77888;SDS011;67082;41.704;44.768;2023-02-15T17:31:16;6.68;;;2.75;;
77888;SDS011;67082;41.704;44.768;2023-02-15T17:33:46;6.53;;;2.90;;
77888;SDS011;67082;41.704;44.768;2023-02-15T17:36:18;6.15;;;1.95;;
77888;SDS011;67082;41.704;44.768;2023-02-15T17:41:59;6.25;;;2.60;;
77888;SDS011;67082;41.704;44.768;2023-02-15T17:44:27;5.70;;;1.90;;
77888;SDS011;67082;41.704;44.768;2023-02-15T17:46:55;5.85;;;2.28;;
77888;SDS011;67082;41.704;44.768;2023-02-15T17:49:26;6.07;;;2.15;;
77888;SDS011;67082;41.704;44.768;2023-02-15T17:52:01;5.25;;;2.30;;
77888;SDS011;67082;41.704;44.768;2023-02-15T17:54:30;6.60;;;2.65;;
77888;SDS011;67082;41.704;44.768;2023-02-15T17:57:19;4.40;;;2.33;;
77888;SDS011;67082;41.704;44.768;2023-02-15T17:59:53;4.50;;;2.08;;
77888;SDS011;67082;41.704;44.768;2023-02-15T18:02:43;3.95;;;1.88;;
77888;SDS011;67082;41.704;44.768;2023-02-15T18:05:37;5.07;;;2.47;;
77888;SDS011;67082;41.704;44.768;2023-02-15T18:08:28;5.50;;;2.50;;
77888;SDS011;67082;41.704;44.768;2023-02-15T18:11:17;7.75;;;2.45;;
77888;SDS011;67082;41.704;44.768;2023-02-15T18:14:08;4.88;;;2.38;;
77888;SDS011;67082;41.704;44.768;2023-02-15T18:16:39;7.32;;;2.63;;
77888;SDS011;67082;41.704;44.768;2023-02-15T18:19:15;5.18;;;2.47;;
77888;SDS011;67082;41.704;44.768;2023-02-15T18:21:56;6.47;;;2.78;;
77888;SDS011;67082;41.704;44.768;2023-02-15T18:24:25;6.82;;;2.67;;
77888;SDS011;67082;41.704;44.768;2023-02-15T18:26:54;7.22;;;2.92;;